Time;durP1;ratioP1;P1;durP2;ratioP2;P2;SDS_P1;SDS_P2;PMS_P1;PMS_P2;Temp;Humidity;BMP_temperature;BMP_pressure;BME280_temperature;BME280_humidity;BME280_pressure;Samples;Min_cycle;Max_cycle;Signal;HPM_P1;HPM_P2
2022/05/15 00:01:59;;;;;;;;;;;;;;;26.47;42.68;94405.84;5023281;28;8931;-55
2022/05/15 00:04:26;;;;;;;;;;;;;;;26.47;42.44;94408.59;5019478;28;9490;-56
2022/05/15 00:06:53;;;;;;;;;;;;;;;26.44;42.40;94398.59;5034624;28;7298;-56
2022/05/15 00:09:21;;;;;;;;;;;;;;;26.46;42.79;94412.63;5035333;28;7540;-56
2022/05/15 00:11:50;;;;;;;;;;;;;;;26.44;42.91;94398.59;5001727;28;9049;-56
2022/05/15 00:14:16;;;;;;;;;;;;;;;26.47;42.79;94396.84;5031474;28;9071;-56
2022/05/15 00:16:43;;;;;;;;;;;;;;;26.47;42.19;94396.84;5014897;28;7424;-56
2022/05/15 00:19:09;;;;;;;;;;;;;;;26.45;43.08;94399.34;5014902;28;7241;-56
2022/05/15 00:21:36;;;;;;;;;;;;;;;26.43;42.95;94402.63;5025066;28;9748;-55
2022/05/15 00:24:06;;;;;;;;;;;;;;;26.46;42.90;94403.59;5025907;28;8743;-56
2022/05/15 00:26:34;;;;;;;;;;;;;;;26.45;42.90;94399.34;5028612;28;7240;-56
2022/05/15 00:29:00;;;;;;;;;;;;;;;26.43;42.48;94396.34;5031188;28;9051;-55
2022/05/15 00:31:30;;;;;;;;;;;;;;;26.44;43.08;94398.59;5015715;28;7997;-56
2022/05/15 00:33:56;;;;;;;;;;;;;;;26.44;43.16;94392.34;5014750;28;7047;-55
2022/05/15 00:36:25;;;;;;;;;;;;;;;26.43;42.68;94401.88;5024370;28;8750;-56
2022/05/15 00:38:51;;;;;;;;;;;;;;;26.43;43.04;94394.34;5027348;28;7278;-56
2022/05/15 00:41:17;;;;;;;;;;;;;;;26.44;42.14;94392.34;5004549;28;7211;-56
2022/05/15 00:43:52;;;;;;;;;;;;;;;26.43;42.69;94388.06;5036610;28;7215;-55
2022/05/15 00:46:28;;;;;;;;;;;;;;;26.42;42.21;94392.09;5041657;28;9104;-55
2022/05/15 00:49:09;;;;;;;;;;;;;;;26.39;42.86;94393.88;5018834;28;9081;-56
2022/05/15 00:52:03;;;;;;;;;;;;;;;26.41;42.38;94385.09;5017547;28;9552;-56
2022/05/15 00:54:56;;;;;;;;;;;;;;;26.40;42.78;94387.13;5031619;28;7291;-56
2022/05/15 00:57:47;;;;;;;;;;;;;;;26.39;43.11;94384.84;5030947;28;7258;-56
2022/05/15 01:00:26;;;;;;;;;;;;;;;26.38;42.31;94386.13;5031527;28;9184;-55
2022/05/15 01:03:09;;;;;;;;;;;;;;;26.38;42.29;94381.34;5016851;28;9090;-56
2022/05/15 01:06:04;;;;;;;;;;;;;;;26.38;42.60;94377.88;5019277;28;7307;-55
2022/05/15 01:08:30;;;;;;;;;;;;;;;26.37;43.06;94384.63;4966447;28;9085;-55
2022/05/15 01:11:05;;;;;;;;;;;;;;;26.36;43.07;94377.63;4957065;28;9160;-55
2022/05/15 01:13:36;;;;;;;;;;;;;;;26.36;43.15;94380.41;4962869;28;7272;-56
2022/05/15 01:16:03;;;;;;;;;;;;;;;26.37;42.69;94379.88;4968750;28;6887;-55
2022/05/15 01:18:32;;;;;;;;;;;;;;;26.36;42.62;94380.41;4954897;28;9120;-55
2022/05/15 01:21:04;;;;;;;;;;;;;;;26.37;42.97;94373.59;4947104;28;9191;-56
2022/05/15 01:23:39;;;;;;;;;;;;;;;26.34;42.50;94374.66;4952962;28;7243;-56
2022/05/15 01:26:17;;;;;;;;;;;;;;;26.31;43.00;94378.44;4961278;28;7583;-56
2022/05/15 01:28:59;;;;;;;;;;;;;;;26.30;42.38;94376.91;4971391;28;7577;-56
2022/05/15 01:31:27;;;;;;;;;;;;;;;26.32;43.25;94369.63;4953557;28;9515;-56
2022/05/15 01:33:54;;;;;;;;;;;;;;;26.33;42.53;94370.38;4971860;28;7882;-56
2022/05/15 01:36:23;;;;;;;;;;;;;;;26.31;42.52;94365.38;4941125;28;9170;-56
2022/05/15 01:38:52;;;;;;;;;;;;;;;26.32;42.86;94368.91;4961146;28;9063;-56
2022/05/15 01:41:18;;;;;;;;;;;;;;;26.32;42.42;94366.88;4958856;28;8813;-56
2022/05/15 01:43:47;;;;;;;;;;;;;;;26.31;43.00;94367.41;4949393;28;8813;-56
2022/05/15 01:46:13;;;;;;;;;;;;;;;26.33;42.67;94364.88;5005861;28;9521;-55
2022/05/15 01:48:50;;;;;;;;;;;;;;;26.32;42.77;94357.88;5019803;28;9721;-55
2022/05/15 01:51:21;;;;;;;;;;;;;;;26.30;42.16;94360.38;5003144;28;7178;-56
2022/05/15 01:53:50;;;;;;;;;;;;;;;26.30;42.13;94361.13;5031867;28;8627;-55
2022/05/15 01:56:17;;;;;;;;;;;;;;;26.29;43.14;94365.16;5015128;28;7604;-56
2022/05/15 01:58:54;;;;;;;;;;;;;;;26.27;42.90;94362.19;5012936;28;9533;-55
2022/05/15 02:01:31;;;;;;;;;;;;;;;26.24;42.50;94359.69;5007880;28;7022;-55
2022/05/15 02:04:01;;;;;;;;;;;;;;;26.28;42.63;94358.13;5032797;28;9339;-55
2022/05/15 02:06:38;;;;;;;;;;;;;;;26.25;42.26;94359.19;5018063;28;7631;-55
2022/05/15 02:09:11;;;;;;;;;;;;;;;26.26;42.16;94363.44;5012387;28;7406;-55
2022/05/15 02:11:38;;;;;;;;;;;;;;;26.27;42.91;94370.44;5031101;28;8459;-55
2022/05/15 02:14:05;;;;;;;;;;;;;;;26.27;42.98;94361.44;5033602;28;9533;-56
2022/05/15 02:16:31;;;;;;;;;;;;;;;26.24;42.46;94368.72;5024313;28;9399;-55
2022/05/15 02:18:57;;;;;;;;;;;;;;;26.23;42.46;94367.19;5014532;28;9187;-56
2022/05/15 02:21:23;;;;;;;;;;;;;;;26.23;42.17;94372.72;5012628;28;9381;-55
2022/05/15 02:24:08;;;;;;;;;;;;;;;26.24;42.68;94368.72;5031212;28;7358;-55
2022/05/15 02:26:45;;;;;;;;;;;;;;;26.20;43.14;94365.50;5012635;28;7130;-55
2022/05/15 02:29:12;;;;;;;;;;;;;;;26.22;42.78;94362.22;5011797;28;8763;-56
2022/05/15 02:31:53;;;;;;;;;;;;;;;26.21;43.42;94355.22;5013932;28;9045;-55
2022/05/15 02:34:19;;;;;;;;;;;;;;;26.21;42.25;94357.97;5022880;28;9218;-55
2022/05/15 02:36:46;;;;;;;;;;;;;;;26.20;42.33;94354.47;5025776;28;7312;-55
2022/05/15 02:39:15;;;;;;;;;;;;;;;26.18;42.64;94359.75;5011788;28;7312;-55
2022/05/15 02:41:50;;;;;;;;;;;;;;;26.20;43.13;94356.47;5032420;28;7230;-55
2022/05/15 02:44:16;;;;;;;;;;;;;;;26.15;42.89;94350.50;5020046;28;7250;-55
2022/05/15 02:47:10;;;;;;;;;;;;;;;26.20;43.34;94356.47;5014135;28;9489;-55
2022/05/15 02:52:20;;;;;;;;;;;;;;;26.17;42.32;94359.00;4918414;29;6972;-56
2022/05/15 02:54:46;;;;;;;;;;;;;;;26.17;43.21;94356.25;4905356;29;7178;-56
2022/05/15 02:57:21;;;;;;;;;;;;;;;26.18;42.40;94365.25;4922338;28;9444;-55
2022/05/15 02:59:47;;;;;;;;;;;;;;;26.14;42.41;94362.78;4915345;29;9488;-56
2022/05/15 03:02:25;;;;;;;;;;;;;;;26.08;42.31;94356.56;4926691;29;7123;-56
2022/05/15 03:04:51;;;;;;;;;;;;;;;26.13;43.16;94361.28;4930537;29;7269;-56
2022/05/15 03:07:18;;;;;;;;;;;;;;;26.12;42.85;94368.06;4920048;29;7447;-55
2022/05/15 03:09:47;;;;;;;;;;;;;;;26.11;42.75;94361.06;4926699;29;9343;-56
2022/05/15 03:12:14;;;;;;;;;;;;;;;26.12;43.07;94370.09;4927309;29;9111;-56
2022/05/15 03:14:42;;;;;;;;;;;;;;;26.11;42.33;94368.59;4919302;29;8743;-56
2022/05/15 03:17:08;;;;;;;;;;;;;;;26.10;42.29;94372.59;4919266;29;9459;-55
2022/05/15 03:19:34;;;;;;;;;;;;;;;26.09;42.48;94362.84;4916388;29;9435;-55
2022/05/15 03:22:15;;;;;;;;;;;;;;;26.09;42.74;94371.09;4916795;29;6997;-56
2022/05/15 03:24:41;;;;;;;;;;;;;;;26.09;43.29;94368.34;4923668;29;8792;-55
2022/05/15 03:27:08;;;;;;;;;;;;;;;26.07;43.11;94368.84;5003564;28;9500;-56
2022/05/15 03:29:36;;;;;;;;;;;;;;;26.09;42.60;94374.63;5009806;28;9255;-56
2022/05/15 03:32:02;;;;;;;;;;;;;;;26.08;42.43;94372.31;5006139;28;7708;-56
2022/05/15 03:34:28;;;;;;;;;;;;;;;26.07;42.92;94370.84;5030274;28;9146;-56
2022/05/15 03:36:54;;;;;;;;;;;;;;;26.09;42.78;94369.09;5007622;28;7079;-56
2022/05/15 03:39:21;;;;;;;;;;;;;;;26.07;43.39;94374.34;5009587;28;9062;-56
2022/05/15 03:42:20;;;;;;;;;;;;;;;26.06;42.42;94374.84;5009687;28;7199;-56
2022/05/15 03:44:47;;;;;;;;;;;;;;;26.01;42.95;94376.38;4954394;28;7911;-56
2022/05/15 03:47:23;;;;;;;;;;;;;;;26.02;42.87;94379.91;4939126;28;8518;-56
2022/05/15 03:50:15;;;;;;;;;;;;;;;25.99;43.40;94375.44;4950802;28;9129;-55
2022/05/15 03:52:41;;;;;;;;;;;;;;;25.99;42.57;94381.66;4946417;28;7086;-57
2022/05/15 03:55:09;;;;;;;;;;;;;;;25.98;43.15;94376.69;4941477;28;7222;-57
2022/05/15 03:57:41;;;;;;;;;;;;;;;26.00;42.70;94377.66;4938895;28;7222;-56
2022/05/15 04:00:17;;;;;;;;;;;;;;;26.00;43.20;94383.19;4939773;28;8989;-56
2022/05/15 04:02:43;;;;;;;;;;;;;;;25.99;42.66;94376.16;4950324;28;8562;-56
2022/05/15 04:05:11;;;;;;;;;;;;;;;25.99;42.72;94381.66;4934709;28;9055;-55
2022/05/15 04:07:52;;;;;;;;;;;;;;;25.99;43.05;94384.44;4932965;28;7267;-55
2022/05/15 04:10:49;;;;;;;;;;;;;;;25.99;42.86;94375.44;4936592;28;7042;-56
2022/05/15 04:13:32;;;;;;;;;;;;;;;25.97;42.72;94372.41;4871452;29;8977;-56
2022/05/15 04:15:58;;;;;;;;;;;;;;;25.98;42.52;94377.44;4874547;29;9050;-55
2022/05/15 04:18:24;;;;;;;;;;;;;;;25.96;42.87;94382.72;4872461;29;7127;-55
2022/05/15 04:20:50;;;;;;;;;;;;;;;25.96;42.42;94377.19;4904737;29;6984;-55
2022/05/15 04:23:16;;;;;;;;;;;;;;;25.94;42.75;94388.00;4927236;29;7224;-55
2022/05/15 04:25:45;;;;;;;;;;;;;;;25.96;43.41;94396.50;4930407;29;7223;-55
2022/05/15 04:28:27;;;;;;;;;;;;;;;25.94;42.62;94390.75;4927683;29;9368;-55
2022/05/15 04:30:53;;;;;;;;;;;;;;;25.93;42.90;94391.25;4931070;29;8700;-55
2022/05/15 04:33:34;;;;;;;;;;;;;;;25.93;43.05;94392.00;4928752;29;7436;-55
2022/05/15 04:36:16;;;;;;;;;;;;;;;25.93;42.93;94400.25;4931130;29;7312;-55
2022/05/15 04:38:52;;;;;;;;;;;;;;;25.92;43.43;94404.28;4906417;29;8814;-56
2022/05/15 04:41:18;;;;;;;;;;;;;;;25.93;42.98;94403.03;4938756;29;8630;-56
2022/05/15 04:44:03;;;;;;;;;;;;;;;25.92;43.23;94404.28;4911802;29;9084;-56
2022/05/15 04:46:57;;;;;;;;;;;;;;;25.92;42.79;94398.78;4929535;29;7000;-56
2022/05/15 04:49:23;;;;;;;;;;;;;;;25.93;42.77;94397.50;4906787;28;7115;-56
2022/05/15 04:51:49;;;;;;;;;;;;;;;25.95;42.97;94397.75;4953352;28;8857;-56
2022/05/15 04:54:15;;;;;;;;;;;;;;;25.96;42.85;94402.00;4972053;28;7340;-56
2022/05/15 04:56:42;;;;;;;;;;;;;;;25.95;42.99;94399.75;4945222;28;9158;-57
2022/05/15 04:59:13;;;;;;;;;;;;;;;25.93;42.79;94403.03;4954082;28;8724;-56
2022/05/15 05:01:48;;;;;;;;;;;;;;;25.92;42.02;94404.28;4973691;28;7282;-56
2022/05/15 05:04:23;;;;;;;;;;;;;;;25.92;42.38;94404.28;4972984;28;7008;-56
2022/05/15 05:06:51;;;;;;;;;;;;;;;25.90;42.93;94406.06;4955065;28;7513;-57
2022/05/15 05:09:17;;;;;;;;;;;;;;;25.89;42.46;94408.06;4953555;28;8026;-56
2022/05/15 05:11:45;;;;;;;;;;;;;;;25.91;42.26;94404.78;4967377;28;7295;-56
2022/05/15 05:14:11;;;;;;;;;;;;;;;25.90;42.36;94406.06;4967873;28;9437;-56
2022/05/15 05:16:39;;;;;;;;;;;;;;;25.90;42.28;94404.03;4950345;28;8660;-57
2022/05/15 05:19:07;;;;;;;;;;;;;;;25.90;42.92;94406.78;4955856;28;9306;-56
2022/05/15 05:21:46;;;;;;;;;;;;;;;25.88;42.41;94409.31;4956747;28;9070;-56
2022/05/15 05:24:13;;;;;;;;;;;;;;;25.89;42.46;94415.56;4956962;28;9059;-56
2022/05/15 05:26:40;;;;;;;;;;;;;;;25.89;42.84;94415.56;4989226;28;7131;-56
2022/05/15 05:29:08;;;;;;;;;;;;;;;25.92;42.93;94415.31;5028825;28;9066;-56
2022/05/15 05:31:51;;;;;;;;;;;;;;;25.92;42.91;94409.06;4998305;28;9076;-56
2022/05/15 05:34:18;;;;;;;;;;;;;;;25.92;42.13;94415.31;5014062;28;7393;-55
2022/05/15 05:36:45;;;;;;;;;;;;;;;25.92;42.74;94418.06;5005620;28;8853;-55
2022/05/15 05:39:23;;;;;;;;;;;;;;;25.90;41.87;94417.81;5032369;28;8838;-56
2022/05/15 05:41:56;;;;;;;;;;;;;;;25.89;41.91;94421.84;5011625;28;7415;-56
2022/05/15 05:44:46;;;;;;;;;;;;;;;25.91;43.06;94419.31;5009773;28;8909;-56
2022/05/15 05:47:34;;;;;;;;;;;;;;;25.95;42.36;94413.53;5020987;28;9052;-56
2022/05/15 05:50:01;;;;;;;;;;;;;;;25.94;42.14;94420.31;5023729;28;9095;-56
2022/05/15 05:52:28;;;;;;;;;;;;;;;25.95;42.37;94419.78;5028984;28;8980;-56
2022/05/15 05:54:54;;;;;;;;;;;;;;;25.94;42.72;94415.56;5015824;28;9159;-56
2022/05/15 05:57:20;;;;;;;;;;;;;;;25.94;42.63;94412.78;5030389;28;9443;-56
2022/05/15 05:59:48;;;;;;;;;;;;;;;25.95;43.92;94414.28;5013007;28;9197;-56
2022/05/15 06:02:17;;;;;;;;;;;;;;;25.94;42.99;94421.06;5009044;28;7270;-56
2022/05/15 06:04:50;;;;;;;;;;;;;;;25.93;42.93;94421.56;5014098;28;7344;-56
2022/05/15 06:07:25;;;;;;;;;;;;;;;25.98;42.91;94410.50;5016317;28;8489;-56
2022/05/15 06:09:57;;;;;;;;;;;;;;;25.98;42.20;94412.50;5027594;28;8137;-56
2022/05/15 06:12:25;;;;;;;;;;;;;;;25.96;42.70;94415.03;5026911;28;9917;-56
2022/05/15 06:14:52;;;;;;;;;;;;;;;25.97;42.20;94409.00;5014446;28;8081;-56
2022/05/15 06:17:23;;;;;;;;;;;;;;;25.98;42.69;94407.75;5014012;28;7300;-56
2022/05/15 06:19:51;;;;;;;;;;;;;;;25.95;42.86;94408.75;5009614;28;7473;-57
2022/05/15 06:22:21;;;;;;;;;;;;;;;25.93;43.29;94405.78;5017585;28;9191;-57
2022/05/15 06:24:54;;;;;;;;;;;;;;;25.95;44.17;94408.75;5027264;28;7608;-56
2022/05/15 06:27:26;;;;;;;;;;;;;;;25.92;44.54;94414.56;5027432;28;8656;-56
2022/05/15 06:30:07;;;;;;;;;;;;;;;25.90;43.93;94404.03;5029217;28;7284;-57
2022/05/15 06:32:34;;;;;;;;;;;;;;;25.90;44.20;94406.78;5005850;28;7624;-56
2022/05/15 06:35:02;;;;;;;;;;;;;;;25.91;44.25;94413.81;5026612;28;8081;-56
2022/05/15 06:37:31;;;;;;;;;;;;;;;25.89;43.96;94408.06;5012621;28;9435;-56
2022/05/15 06:39:57;;;;;;;;;;;;;;;25.90;43.62;94408.81;5020291;28;7671;-56
2022/05/15 06:42:35;;;;;;;;;;;;;;;25.89;43.35;94410.06;5028985;28;7462;-56
2022/05/15 06:45:02;;;;;;;;;;;;;;;25.87;44.01;94407.06;5010676;28;9385;-57
2022/05/15 06:47:40;;;;;;;;;;;;;;;25.88;42.65;94412.06;5009637;28;7056;-57
2022/05/15 06:50:10;;;;;;;;;;;;;;;25.89;43.64;94410.06;5024984;28;6928;-58
2022/05/15 06:52:47;;;;;;;;;;;;;;;25.88;43.60;94414.09;5028734;28;8223;-57
2022/05/15 06:55:16;;;;;;;;;;;;;;;25.89;43.01;94410.06;5024903;28;7467;-57
2022/05/15 06:57:49;;;;;;;;;;;;;;;25.89;43.19;94408.06;5009075;28;8761;-56
2022/05/15 07:00:19;;;;;;;;;;;;;;;25.89;43.51;94402.56;5022379;28;9353;-56
2022/05/15 07:02:46;;;;;;;;;;;;;;;25.88;43.44;94409.31;5013044;28;7273;-56
2022/05/15 07:05:21;;;;;;;;;;;;;;;25.89;43.96;94405.31;5005353;28;7359;-57
2022/05/15 07:07:51;;;;;;;;;;;;;;;25.89;43.78;94410.81;5016423;28;7905;-57
2022/05/15 07:10:18;;;;;;;;;;;;;;;25.91;43.86;94413.81;5002852;28;9789;-56
2022/05/15 07:12:45;;;;;;;;;;;;;;;25.91;43.99;94407.53;4999346;28;9130;-57
2022/05/15 07:15:11;;;;;;;;;;;;;;;25.92;43.28;94403.53;5019053;28;7507;-56
2022/05/15 07:17:37;;;;;;;;;;;;;;;25.91;43.04;94393.75;5017637;28;7493;-57
2022/05/15 07:20:05;;;;;;;;;;;;;;;25.91;43.02;94396.53;5004416;28;9206;-57
2022/05/15 07:22:33;;;;;;;;;;;;;;;25.90;43.22;94401.28;5018724;28;8739;-57
2022/05/15 07:25:01;;;;;;;;;;;;;;;25.93;43.22;94394.75;5012264;28;7119;-56
2022/05/15 07:27:27;;;;;;;;;;;;;;;25.93;42.96;94399.50;5004517;28;7073;-56
2022/05/15 07:29:53;;;;;;;;;;;;;;;25.92;42.77;94393.28;5007269;28;8045;-56
2022/05/15 07:32:20;;;;;;;;;;;;;;;25.90;42.06;94395.75;5011731;28;7255;-57
2022/05/15 07:34:47;;;;;;;;;;;;;;;25.93;42.31;94389.25;5021618;28;7228;-56
2022/05/15 07:37:16;;;;;;;;;;;;;;;25.94;42.94;94387.25;5005854;28;9253;-56
2022/05/15 07:39:44;;;;;;;;;;;;;;;25.92;43.03;94390.50;5018198;28;9060;-56
2022/05/15 07:42:13;;;;;;;;;;;;;;;25.91;42.88;94380.75;5026340;28;8781;-56
2022/05/15 07:44:42;;;;;;;;;;;;;;;25.90;42.56;94384.75;5003613;28;9116;-57
2022/05/15 07:47:08;;;;;;;;;;;;;;;25.91;41.87;94389.00;5023052;28;6880;-56
2022/05/15 07:49:37;;;;;;;;;;;;;;;25.91;42.41;94383.50;5003722;28;7492;-57
2022/05/15 07:52:06;;;;;;;;;;;;;;;25.92;42.86;94385.00;5025340;28;7568;-56
2022/05/15 07:54:33;;;;;;;;;;;;;;;25.94;42.04;94376.22;5004361;28;7083;-57
2022/05/15 07:57:01;;;;;;;;;;;;;;;25.93;42.85;94380.97;5027975;28;7248;-57
2022/05/15 07:59:53;;;;;;;;;;;;;;;25.96;42.42;94374.44;5012580;28;9404;-56
2022/05/15 08:02:33;;;;;;;;;;;;;;;25.97;42.72;94375.94;4946583;28;7256;-57
2022/05/15 08:08:03;;;;;;;;;;;;;;;25.99;42.41;94376.16;4947976;28;9688;-57
2022/05/15 08:10:33;;;;;;;;;;;;;;;26.02;42.07;94369.63;4960022;28;9060;-57
2022/05/15 08:13:00;;;;;;;;;;;;;;;26.02;42.33;94374.38;4936929;29;7362;-57
2022/05/15 08:15:30;;;;;;;;;;;;;;;25.99;42.25;94367.16;4948872;29;9346;-57
2022/05/15 08:23:33;;;;;;;;;;;;;;;26.02;42.90;94369.63;4933081;28;8985;-56
2022/05/15 08:23:58;;;;;;;;;;;;;;;26.00;43.72;94366.63;4947926;28;9080;-56
2022/05/15 08:26:30;;;;;;;;;;;;;;;26.01;43.08;94367.41;4953280;28;7357;-56
2022/05/15 08:28:57;;;;;;;;;;;;;;;25.98;41.57;94363.66;4938113;28;9182;-57
2022/05/15 08:31:26;;;;;;;;;;;;;;;25.99;42.97;94365.13;4945238;28;9038;-57
2022/05/15 08:33:54;;;;;;;;;;;;;;;25.98;42.68;94369.16;4919633;28;9979;-58
2022/05/15 08:36:20;;;;;;;;;;;;;;;25.99;42.98;94361.66;4937384;28;9570;-57
2022/05/15 08:38:47;;;;;;;;;;;;;;;25.98;42.94;94366.41;4981837;28;6856;-57
2022/05/15 08:41:14;;;;;;;;;;;;;;;26.01;42.07;94359.84;5010714;28;9070;-57
2022/05/15 08:43:57;;;;;;;;;;;;;;;26.02;43.60;94361.34;5008200;28;7315;-57
2022/05/15 08:46:45;;;;;;;;;;;;;;;26.00;44.16;94361.13;5010698;28;6860;-57
2022/05/15 08:49:46;;;;;;;;;;;;;;;26.06;43.03;94364.56;5011798;28;7053;-57
2022/05/15 08:52:28;;;;;;;;;;;;;;;26.01;42.13;94368.13;5026382;28;9040;-57
2022/05/15 08:55:27;;;;;;;;;;;;;;;26.02;41.86;94364.13;5007389;28;7211;-57
2022/05/15 08:58:22;;;;;;;;;;;;;;;26.02;42.28;94361.34;4954094;28;9019;-57
2022/05/15 09:00:57;;;;;;;;;;;;;;;26.03;42.70;94365.59;4964506;28;9136;-57
2022/05/15 09:03:38;;;;;;;;;;;;;;;26.03;42.47;94367.63;4968649;28;8785;-57
2022/05/15 09:06:25;;;;;;;;;;;;;;;26.01;42.33;94361.88;4941716;28;9399;-57
2022/05/15 09:09:14;;;;;;;;;;;;;;;26.02;42.05;94368.88;4970606;28;7848;-57
2022/05/15 09:12:00;;;;;;;;;;;;;;;26.03;42.27;94368.34;4972543;28;7126;-57
2022/05/15 09:14:44;;;;;;;;;;;;;;;26.07;41.75;94366.09;4949795;28;6981;-57
2022/05/15 09:17:32;;;;;;;;;;;;;;;26.08;42.31;94370.34;4958105;28;9774;-57
2022/05/15 09:20:03;;;;;;;;;;;;;;;26.10;42.06;94364.31;4968188;28;8960;-57
2022/05/15 09:22:43;;;;;;;;;;;;;;;26.07;42.61;94360.56;4953342;28;9814;-57
2022/05/15 09:25:22;;;;;;;;;;;;;;;26.08;42.80;94366.81;4969274;28;9829;-57
2022/05/15 09:28:10;;;;;;;;;;;;;;;26.07;42.07;94366.09;4955807;28;7772;-57
2022/05/15 09:30:42;;;;;;;;;;;;;;;26.10;41.71;94372.59;4960242;28;8598;-57
2022/05/15 09:33:23;;;;;;;;;;;;;;;26.09;41.75;94373.88;4967630;28;7175;-58
2022/05/15 09:36:13;;;;;;;;;;;;;;;26.09;41.94;94369.09;5002807;28;9412;-57
2022/05/15 09:38:41;;;;;;;;;;;;;;;26.06;41.89;94370.09;4950491;28;8779;-57
2022/05/15 09:44:06;;;;;;;;;;;;;;;26.08;41.59;94375.88;4944099;28;7530;-56
2022/05/15 09:47:03;;;;;;;;;;;;;;;26.05;42.27;94373.38;4925556;28;9401;-57
2022/05/15 09:49:34;;;;;;;;;;;;;;;26.02;41.58;94375.13;4934608;28;9083;-56
2022/05/15 09:52:11;;;;;;;;;;;;;;;25.99;41.85;94370.66;4949414;28;7266;-57
2022/05/15 09:54:38;;;;;;;;;;;;;;;25.97;41.58;94364.16;4941415;28;9252;-57
2022/05/15 09:57:23;;;;;;;;;;;;;;;25.96;40.85;94359.91;4934984;28;7284;-56
2022/05/15 09:59:51;;;;;;;;;;;;;;;26.00;41.74;94366.63;4921849;28;7161;-57
2022/05/15 10:02:23;;;;;;;;;;;;;;;26.05;41.11;94365.09;4932184;28;7408;-57
2022/05/15 10:04:52;;;;;;;;;;;;;;;26.06;42.71;94359.06;4927595;28;7326;-57
2022/05/15 10:07:46;;;;;;;;;;;;;;;26.09;41.55;94360.84;4938051;28;8596;-57
2022/05/15 10:10:17;;;;;;;;;;;;;;;26.13;40.80;94364.06;4942028;28;8854;-56
2022/05/15 10:12:47;;;;;;;;;;;;;;;26.15;40.96;94358.75;4944968;28;6963;-57
2022/05/15 10:15:17;;;;;;;;;;;;;;;26.19;40.07;94360.50;4951993;28;9320;-57
2022/05/15 10:18:03;;;;;;;;;;;;;;;26.19;40.59;94358.47;5008658;28;7280;-57
2022/05/15 10:20:35;;;;;;;;;;;;;;;26.22;40.39;94359.47;5007527;28;9144;-57
2022/05/15 10:23:05;;;;;;;;;;;;;;;26.22;40.64;94357.44;5013028;28;7349;-57
2022/05/15 10:25:56;;;;;;;;;;;;;;;26.24;40.42;94356.94;5007646;28;7023;-57
2022/05/15 10:29:23;;;;;;;;;;;;;;;26.25;40.27;94359.19;5021548;28;8658;-57
2022/05/15 10:32:03;;;;;;;;;;;;;;;26.25;40.95;94352.91;4950524;28;7519;-56
2022/05/15 10:34:31;;;;;;;;;;;;;;;26.24;40.31;94351.41;4958691;28;9392;-56
2022/05/15 10:37:15;;;;;;;;;;;;;;;26.22;40.29;94353.94;4950182;28;8499;-57
2022/05/15 10:39:51;;;;;;;;;;;;;;;26.27;41.16;94353.16;4956212;28;7321;-57
2022/05/15 10:42:58;;;;;;;;;;;;;;;26.27;40.56;94339.38;4963588;28;6883;-56
2022/05/15 10:45:32;;;;;;;;;;;;;;;26.25;41.19;94350.16;4944489;28;7159;-57
2022/05/15 10:48:25;;;;;;;;;;;;;;;26.26;40.35;94335.09;4967882;28;9661;-56
2022/05/15 10:51:05;;;;;;;;;;;;;;;26.28;41.52;94329.81;4949707;28;7100;-57
2022/05/15 10:57:29;;;;;;;;;;;;;;;26.25;41.70;94319.84;4966449;28;7152;-57
2022/05/15 11:00:19;;;;;;;;;;;;;;;26.30;41.06;94325.28;4963117;28;7213;-57
2022/05/15 11:03:17;;;;;;;;;;;;;;;26.31;41.37;94320.53;4994967;28;8985;-57
2022/05/15 11:05:59;;;;;;;;;;;;;;;26.32;41.78;94313.75;5005553;28;7119;-57
2022/05/15 11:09:01;;;;;;;;;;;;;;;26.34;41.78;94311.94;5003908;28;9296;-57
2022/05/15 11:11:31;;;;;;;;;;;;;;;26.36;40.91;94317.69;4979014;28;9098;-58
2022/05/15 11:14:28;;;;;;;;;;;;;;;26.35;41.07;94318.97;4978644;28;8043;-57
2022/05/15 11:17:17;;;;;;;;;;;;;;;26.37;40.51;94313.69;4980936;28;9202;-57
2022/05/15 11:19:46;;;;;;;;;;;;;;;26.39;40.82;94315.91;4982290;28;9017;-57
2022/05/15 11:22:37;;;;;;;;;;;;;;;26.43;41.07;94308.84;4959591;28;7855;-57
2022/05/15 11:25:28;;;;;;;;;;;;;;;26.45;40.97;94305.56;4982808;28;7882;-56
2022/05/15 11:28:12;;;;;;;;;;;;;;;26.46;41.26;94307.06;4969526;28;9309;-56
2022/05/15 11:30:45;;;;;;;;;;;;;;;26.45;40.31;94308.31;4969154;28;8971;-56
2022/05/15 11:33:25;;;;;;;;;;;;;;;26.48;41.17;94307.28;4982680;28;8792;-58
2022/05/15 11:36:11;;;;;;;;;;;;;;;26.51;40.90;94306.28;4980928;28;6987;-57
2022/05/15 11:39:01;;;;;;;;;;;;;;;26.54;40.90;94297.69;4969025;28;7183;-56
2022/05/15 11:41:37;;;;;;;;;;;;;;;26.61;40.33;94296.34;4984165;28;9220;-57
2022/05/15 11:44:19;;;;;;;;;;;;;;;26.65;39.33;94297.56;4986726;28;7329;-57
2022/05/15 11:47:00;;;;;;;;;;;;;;;26.71;38.67;94289.22;4986150;28;9008;-57
2022/05/15 11:49:32;;;;;;;;;;;;;;;26.71;37.72;94301.00;5022465;28;9019;-58
2022/05/15 11:52:11;;;;;;;;;;;;;;;26.77;38.97;94285.13;5029002;28;8763;-57
2022/05/15 11:54:40;;;;;;;;;;;;;;;26.78;38.82;94283.13;5025976;28;7079;-57
2022/05/15 11:57:13;;;;;;;;;;;;;;;26.76;38.69;94286.41;5022335;28;7266;-56
2022/05/15 11:59:57;;;;;;;;;;;;;;;26.83;40.07;94285.84;5008093;28;9072;-57
2022/05/15 12:02:33;;;;;;;;;;;;;;;26.87;39.43;94274.50;5012004;28;8486;-57
2022/05/15 12:05:20;;;;;;;;;;;;;;;26.83;39.74;94274.03;5010687;28;6928;-57
2022/05/15 12:07:56;;;;;;;;;;;;;;;26.92;39.47;94275.69;5025493;28;9121;-57
2022/05/15 12:10:36;;;;;;;;;;;;;;;26.95;39.09;94274.66;5007459;28;6860;-57
2022/05/15 12:13:30;;;;;;;;;;;;;;;26.86;39.01;94270.25;4999024;28;7132;-57
2022/05/15 12:16:26;;;;;;;;;;;;;;;26.83;38.49;94268.53;5009125;28;6852;-57
2022/05/15 12:19:03;;;;;;;;;;;;;;;26.79;39.01;94268.09;5021898;28;7223;-57
2022/05/15 12:21:48;;;;;;;;;;;;;;;26.78;39.66;94275.59;5000973;28;9201;-56
2022/05/15 12:24:29;;;;;;;;;;;;;;;26.77;39.54;94274.09;5009764;28;8796;-57
2022/05/15 12:27:09;;;;;;;;;;;;;;;26.77;40.20;94267.84;5010228;28;7215;-58
2022/05/15 12:29:47;;;;;;;;;;;;;;;26.76;39.73;94269.13;5027876;28;8977;-57
2022/05/15 12:32:19;;;;;;;;;;;;;;;26.75;40.22;94264.88;5027117;28;9714;-57
2022/05/15 12:34:52;;;;;;;;;;;;;;;26.74;39.64;94266.88;5008792;28;9043;-57
2022/05/15 12:37:28;;;;;;;;;;;;;;;26.75;39.90;94264.88;5022639;28;7232;-58
2022/05/15 12:40:00;;;;;;;;;;;;;;;26.75;39.90;94265.59;5017476;28;9463;-57
2022/05/15 12:42:41;;;;;;;;;;;;;;;26.78;40.45;94256.28;5008275;28;9028;-57
2022/05/15 12:45:18;;;;;;;;;;;;;;;26.81;40.41;94260.03;5010396;28;8809;-57
2022/05/15 12:48:10;;;;;;;;;;;;;;;26.81;40.12;94249.00;5008049;28;7111;-57
2022/05/15 12:51:02;;;;;;;;;;;;;;;26.84;40.74;94258.97;5024929;28;8776;-57
2022/05/15 12:53:43;;;;;;;;;;;;;;;26.82;39.79;94256.72;5008806;28;7263;-57
2022/05/15 12:56:22;;;;;;;;;;;;;;;26.84;40.94;94256.97;5014093;28;9463;-57
2022/05/15 12:58:59;;;;;;;;;;;;;;;26.87;40.66;94252.41;5026127;28;7239;-57
2022/05/15 13:01:29;;;;;;;;;;;;;;;26.89;41.00;94256.16;5021811;28;9453;-57
2022/05/15 13:04:09;;;;;;;;;;;;;;;26.90;39.90;94254.13;5027757;28;9007;-56
2022/05/15 13:06:38;;;;;;;;;;;;;;;26.92;40.20;94259.88;5026620;28;7258;-56
2022/05/15 13:09:18;;;;;;;;;;;;;;;26.94;40.79;94251.81;5009743;28;6860;-56
2022/05/15 13:11:58;;;;;;;;;;;;;;;26.94;40.41;94249.06;5028857;28;7361;-56
2022/05/15 13:14:38;;;;;;;;;;;;;;;26.96;40.02;94243.75;5021251;28;8022;-56
2022/05/15 13:17:09;;;;;;;;;;;;;;;26.97;40.27;94242.47;5021231;28;7332;-57
2022/05/15 13:19:46;;;;;;;;;;;;;;;26.98;40.05;94235.69;5016348;28;7294;-56
2022/05/15 13:22:24;;;;;;;;;;;;;;;27.00;40.25;94233.16;5013437;28;7633;-56
2022/05/15 13:25:24;;;;;;;;;;;;;;;27.01;40.23;94239.44;5025225;28;7985;-56
2022/05/15 13:27:51;;;;;;;;;;;;;;;27.02;40.45;94235.38;5023939;28;8992;-56
2022/05/15 13:30:25;;;;;;;;;;;;;;;27.04;40.17;94230.84;5027896;28;9079;-57
2022/05/15 13:33:09;;;;;;;;;;;;;;;27.05;39.97;94226.81;5008722;28;7248;-57
2022/05/15 13:35:54;;;;;;;;;;;;;;;27.09;39.88;94226.50;5006373;28;9110;-58
2022/05/15 13:43:17;;;;;;;;;;;;;;;27.11;39.90;94227.47;5028768;28;8624;-56
2022/05/15 13:44:19;;;;;;;;;;;;;;;27.17;39.49;94219.84;5022968;28;7214;-56
2022/05/15 13:47:06;;;;;;;;;;;;;;;27.17;39.96;94221.84;5023488;28;7748;-56
2022/05/15 13:49:44;;;;;;;;;;;;;;;27.17;40.06;94216.34;5007761;28;8761;-57
2022/05/15 13:52:41;;;;;;;;;;;;;;;27.18;39.52;94215.06;5009379;28;8863;-57
2022/05/15 13:55:41;;;;;;;;;;;;;;;27.17;39.55;94214.31;4946383;28;7574;-57
2022/05/15 13:58:07;;;;;;;;;;;;;;;27.20;40.07;94213.28;4950542;28;7032;-57